Time;durP1;ratioP1;P1;durP2;ratioP2;P2;SDS_P1;SDS_P2;PMS_P1;PMS_P2;Temp;Humidity;BMP_temperature;BMP_pressure;BME280_temperature;BME280_humidity;BME280_pressure;Samples;Min_cycle;Max_cycle;Signal;HPM_P1;HPM_P2
2023/09/10 00:01:24;;;;;;;12.43;10.48;;;;;;;22.48;58.28;93080.06;2057901;69;20157;-76
2023/09/10 00:03:49;;;;;;;12.48;10.43;;;;;;;22.66;57.49;93081.88;2052295;70;20150;-77
2023/09/10 00:06:15;;;;;;;12.98;10.75;;;;;;;22.67;57.57;93080.47;2053671;70;20145;-76
2023/09/10 00:08:41;;;;;;;11.55;10.35;;;;;;;22.65;56.63;93080.44;2054235;70;20170;-76
2023/09/10 00:11:07;;;;;;;12.13;10.30;;;;;;;22.72;56.70;93079.84;2054309;70;20596;-77
2023/09/10 00:13:35;;;;;;;14.32;11.23;;;;;;;22.56;57.43;93076.66;2051009;70;20625;-77
2023/09/10 00:16:02;;;;;;;13.43;10.70;;;;;;;22.25;59.47;93069.50;2054226;70;20237;-77
2023/09/10 00:18:29;;;;;;;13.77;10.85;;;;;;;22.45;58.51;93075.69;2054344;70;20138;-74
2023/09/10 00:20:55;;;;;;;11.45;9.93;;;;;;;22.41;59.35;93084.22;2054724;70;20224;-77
2023/09/10 00:23:23;;;;;;;12.65;10.52;;;;;;;22.36;59.24;93076.94;2054153;70;20158;-77
2023/09/10 00:25:51;;;;;;;14.23;10.32;;;;;;;22.23;60.41;93087.38;2054052;70;20146;-78
2023/09/10 00:28:17;;;;;;;14.13;11.00;;;;;;;22.31;59.97;93084.72;2053917;70;20162;-77
2023/09/10 00:30:51;;;;;;;14.52;10.90;;;;;;;22.25;59.32;93092.44;2054023;70;20267;-77
2023/09/10 00:33:21;;;;;;;15.60;10.73;;;;;;;22.24;59.33;93080.22;2054187;70;20277;-77
2023/09/10 00:35:47;;;;;;;11.55;10.20;;;;;;;22.20;58.95;93079.41;2050655;70;20161;-77
2023/09/10 00:38:14;;;;;;;12.68;11.10;;;;;;;22.37;58.86;93086.97;2053920;70;20158;-75
2023/09/10 00:40:39;;;;;;;15.30;10.63;;;;;;;22.30;58.68;93083.22;2050397;70;20164;-76
2023/09/10 00:43:06;;;;;;;11.82;10.52;;;;;;;22.35;58.47;93077.59;2050668;70;20150;-75
2023/09/10 00:45:32;;;;;;;12.02;10.32;;;;;;;22.36;59.49;93079.03;2054377;70;20162;-75
2023/09/10 00:47:58;;;;;;;11.48;10.27;;;;;;;22.35;58.88;93089.06;2054333;70;20142;-75
2023/09/10 00:50:24;;;;;;;12.32;11.02;;;;;;;22.03;59.21;93078.25;2051144;70;20183;-77
2023/09/10 00:52:57;;;;;;;15.25;11.48;;;;;;;21.98;60.10;93083.16;2051114;70;20613;-76
2023/09/10 00:55:26;;;;;;;12.98;11.52;;;;;;;21.96;58.65;93076.66;2050844;70;20629;-76
2023/09/10 00:57:52;;;;;;;13.27;11.35;;;;;;;21.80;60.56;93079.84;2054408;70;20215;-76
2023/09/10 01:00:20;;;;;;;13.10;10.48;;;;;;;21.82;59.63;93071.31;2047848;70;20165;-76
2023/09/10 01:02:49;;;;;;;11.98;10.75;;;;;;;21.92;59.81;93083.03;2050736;70;20162;-76
2023/09/10 01:05:17;;;;;;;12.90;10.63;;;;;;;21.91;59.85;93081.56;2054403;70;20161;-76
2023/09/10 01:07:44;;;;;;;13.98;11.10;;;;;;;21.95;59.27;93081.66;2051051;70;20701;-75
2023/09/10 01:10:10;;;;;;;11.90;10.43;;;;;;;22.03;59.29;93089.72;2054283;69;20174;-76
2023/09/10 01:12:49;;;;;;;13.18;10.60;;;;;;;21.96;58.79;93088.84;2051242;70;20200;-76
2023/09/10 01:15:37;;;;;;;14.63;11.55;;;;;;;21.82;59.80;93082.78;2050960;70;20161;-76
2023/09/10 01:18:02;;;;;;;14.90;10.52;;;;;;;;;;2053982;70;20272;-76
2023/09/10 01:20:31;;;;;;;12.30;11.02;;;;;;;21.87;58.91;93095.06;2051001;70;20150;-77
2023/09/10 01:23:08;;;;;;;13.43;10.73;;;;;;;21.74;59.09;93088.28;2048488;70;20158;-77
2023/09/10 01:25:34;;;;;;;15.07;10.73;;;;;;;21.75;60.18;93093.34;2051170;70;20154;-77
2023/09/10 01:28:03;;;;;;;13.68;10.90;;;;;;;21.82;59.44;93086.38;2054467;70;20146;-77
2023/09/10 01:30:32;;;;;;;12.98;11.30;;;;;;;21.71;59.86;93087.50;2054419;70;20122;-77
2023/09/10 01:33:35;;;;;;;14.23;10.80;;;;;;;21.70;60.41;93093.91;2051059;70;20154;-77
2023/09/10 01:36:04;;;;;;;12.98;11.02;;;;;;;21.55;60.81;93084.97;2054485;70;20141;-76
2023/09/10 01:38:58;;;;;;;15.05;11.00;;;;;;;21.29;61.70;93090.69;2054487;69;20173;-77
2023/09/10 01:41:26;;;;;;;14.05;10.98;;;;;;;21.37;61.71;93092.34;2054029;70;20534;-76
2023/09/10 01:43:53;;;;;;;14.80;11.07;;;;;;;21.38;61.73;93088.78;2054274;70;20154;-78
2023/09/10 01:46:20;;;;;;;15.85;11.10;;;;;;;21.37;59.97;93089.47;2051079;70;20134;-77
2023/09/10 01:48:46;;;;;;;13.65;10.90;;;;;;;21.40;60.63;93088.88;2054394;70;20178;-76
2023/09/10 01:51:12;;;;;;;12.55;10.85;;;;;;;21.43;61.02;93101.09;2050921;70;20142;-76
2023/09/10 01:53:38;;;;;;;16.60;11.52;;;;;;;21.47;60.29;93089.75;2053960;70;20146;-77
2023/09/10 01:56:03;;;;;;;12.68;10.63;;;;;;;21.39;61.18;93095.25;2054213;70;20150;-77
2023/09/10 01:58:29;;;;;;;12.98;11.05;;;;;;;21.43;60.42;93092.50;2050908;70;20584;-76
2023/09/10 02:00:55;;;;;;;12.90;11.48;;;;;;;21.35;60.96;93095.13;2051155;70;20208;-75
2023/09/10 02:03:21;;;;;;;12.50;11.15;;;;;;;21.40;60.41;93091.72;2050826;70;20224;-76
2023/09/10 02:05:46;;;;;;;13.98;11.07;;;;;;;21.20;61.28;93091.88;2054169;70;20271;-76
2023/09/10 02:08:14;;;;;;;12.45;11.15;;;;;;;21.30;61.34;93097.88;2051226;70;20171;-77
2023/09/10 02:10:40;;;;;;;12.98;11.30;;;;;;;21.20;60.96;93094.00;2048438;70;20157;-76
2023/09/10 02:13:06;;;;;;;13.30;11.52;;;;;;;21.24;61.42;93094.84;2054304;70;20146;-77
2023/09/10 02:15:31;;;;;;;13.00;10.77;;;;;;;21.26;60.52;93089.19;2051096;70;20157;-77
2023/09/10 02:17:57;;;;;;;15.40;11.05;;;;;;;21.23;60.00;93089.81;2051033;70;20149;-75
2023/09/10 02:20:23;;;;;;;14.40;11.32;;;;;;;21.22;59.87;93089.06;2054484;70;20655;-76
2023/09/10 02:22:48;;;;;;;13.38;10.88;;;;;;;21.33;59.96;93090.09;2050988;70;20150;-77
2023/09/10 02:25:14;;;;;;;12.70;11.27;;;;;;;21.38;59.82;93088.78;2054084;70;20149;-75
2023/09/10 02:27:40;;;;;;;12.45;10.95;;;;;;;21.25;61.43;93099.16;2050787;70;20725;-76
2023/09/10 02:30:07;;;;;;;12.40;10.63;;;;;;;21.30;60.65;93091.41;2053998;70;20170;-77
2023/09/10 02:32:33;;;;;;;13.10;10.95;;;;;;;21.32;60.79;93091.50;2053475;70;20318;-76
2023/09/10 02:34:59;;;;;;;13.57;11.60;;;;;;;21.01;61.69;93093.50;2050998;70;20189;-77
2023/09/10 02:37:24;;;;;;;14.68;11.48;;;;;;;21.05;62.49;93098.59;2054269;69;20252;-76
2023/09/10 02:39:51;;;;;;;12.77;11.18;;;;;;;21.11;62.27;93095.19;2050608;70;20237;-77
2023/09/10 02:42:17;;;;;;;11.98;10.73;;;;;;;21.11;61.12;93098.03;2054056;70;20157;-77
2023/09/10 02:44:43;;;;;;;13.02;11.18;;;;;;;21.04;61.94;93085.69;2053923;70;20221;-76
2023/09/10 02:47:10;;;;;;;14.07;10.98;;;;;;;21.01;61.36;93090.63;2050573;70;20130;-76
2023/09/10 02:49:35;;;;;;;13.80;10.73;;;;;;;20.92;61.44;93088.22;2054093;70;20245;-77
2023/09/10 02:52:02;;;;;;;12.10;10.90;;;;;;;21.01;60.98;93089.91;2050885;70;20150;-77
2023/09/10 02:54:29;;;;;;;12.82;11.13;;;;;;;21.09;60.76;93095.84;2050847;70;20165;-77
2023/09/10 02:56:56;;;;;;;13.02;11.32;;;;;;;21.11;60.09;93083.72;2053942;70;20149;-77
2023/09/10 02:59:24;;;;;;;12.25;10.95;;;;;;;20.85;61.50;93084.47;2047757;70;20228;-77
2023/09/10 03:01:51;;;;;;;12.77;11.15;;;;;;;21.05;60.66;93081.44;2054214;70;20273;-77
2023/09/10 03:04:17;;;;;;;13.07;10.63;;;;;;;21.09;60.96;93080.81;2050681;70;20915;-77
2023/09/10 03:06:44;;;;;;;14.90;11.48;;;;;;;20.53;62.44;93087.09;2050910;70;20182;-76
2023/09/10 03:09:13;;;;;;;14.77;11.40;;;;;;;20.62;62.99;93085.94;2054155;69;20161;-76
2023/09/10 03:11:40;;;;;;;15.65;11.20;;;;;;;20.71;62.88;93081.16;2050748;70;20526;-76
2023/09/10 03:14:07;;;;;;;12.35;11.05;;;;;;;20.69;63.49;93086.84;2050715;70;20154;-75
2023/09/10 03:16:34;;;;;;;13.30;11.13;;;;;;;20.78;62.74;93082.81;2050880;70;20240;-75
2023/09/10 03:19:00;;;;;;;11.90;10.48;;;;;;;20.83;62.57;93077.94;2050696;70;20259;-75
2023/09/10 03:21:26;;;;;;;12.18;10.95;;;;;;;20.69;63.34;93098.28;2054323;70;20539;-76
2023/09/10 03:23:53;;;;;;;12.40;10.45;;;;;;;20.83;62.35;93086.53;2054531;70;20146;-76
2023/09/10 03:26:19;;;;;;;12.82;10.57;;;;;;;20.81;62.48;93092.94;2051164;70;20127;-76
2023/09/10 03:28:45;;;;;;;12.50;10.90;;;;;;;20.87;60.96;93092.38;2048432;70;20586;-77
2023/09/10 03:31:11;;;;;;;12.63;10.40;;;;;;;20.75;60.47;93079.16;2051180;70;20161;-76
2023/09/10 03:33:37;;;;;;;12.43;11.13;;;;;;;20.88;61.04;93093.81;2051100;70;20622;-76
2023/09/10 03:36:03;;;;;;;13.18;11.18;;;;;;;20.90;60.83;93083.16;2054529;70;20182;-76
2023/09/10 03:38:29;;;;;;;11.18;9.98;;;;;;;20.95;61.27;93084.00;2051252;70;20141;-76
2023/09/10 03:40:54;;;;;;;11.93;10.30;;;;;;;20.91;60.59;93092.47;2051200;70;20149;-76
2023/09/10 03:43:20;;;;;;;11.93;10.73;;;;;;;20.71;61.24;93078.31;2054529;70;20148;-77
2023/09/10 03:45:46;;;;;;;12.68;10.80;;;;;;;20.74;60.98;93076.97;2051205;70;20264;-77
2023/09/10 03:48:12;;;;;;;11.88;10.68;;;;;;;20.76;60.49;93083.50;2050955;70;20150;-76
2023/09/10 03:50:38;;;;;;;11.63;10.43;;;;;;;20.89;60.11;93080.97;2051021;70;20241;-76
2023/09/10 03:53:04;;;;;;;11.52;10.32;;;;;;;20.76;61.16;93080.63;2054475;70;20142;-76
2023/09/10 03:55:30;;;;;;;13.73;10.93;;;;;;;20.87;60.41;93087.38;2054361;70;20149;-76
2023/09/10 03:57:56;;;;;;;12.50;10.60;;;;;;;20.67;60.46;93084.66;2051182;70;20145;-77
2023/09/10 04:00:22;;;;;;;15.68;11.15;;;;;;;20.55;61.19;93090.72;2051305;70;20157;-76
2023/09/10 04:02:48;;;;;;;12.32;10.77;;;;;;;20.76;60.95;93086.34;2051144;70;20585;-76
2023/09/10 04:05:14;;;;;;;11.88;10.55;;;;;;;20.75;61.03;93073.44;2054532;70;20309;-76
2023/09/10 04:07:40;;;;;;;11.90;10.70;;;;;;;20.84;60.49;93085.09;2051164;70;20653;-76
2023/09/10 04:10:09;;;;;;;14.00;9.90;;;;;;;20.71;60.03;93079.06;2054439;70;20249;-77
2023/09/10 04:12:36;;;;;;;12.10;10.23;;;;;;;20.53;61.42;93069.94;2054515;70;20212;-76
2023/09/10 04:15:03;;;;;;;13.10;11.10;;;;;;;20.51;61.26;93084.16;2051202;70;20229;-77
2023/09/10 04:17:29;;;;;;;14.07;10.98;;;;;;;20.30;62.17;93080.66;2054487;70;20194;-77
2023/09/10 04:19:58;;;;;;;14.95;11.00;;;;;;;20.50;61.85;93074.84;2055005;70;20170;-75
2023/09/10 04:22:24;;;;;;;12.55;10.38;;;;;;;20.52;61.81;93077.75;2055014;70;20561;-76
2023/09/10 04:24:51;;;;;;;13.02;10.73;;;;;;;20.45;62.65;93078.97;2051656;70;20150;-76
2023/09/10 04:27:17;;;;;;;14.52;10.23;;;;;;;20.46;62.28;93080.41;2051543;70;20149;-76
2023/09/10 04:29:43;;;;;;;12.75;9.95;;;;;;;20.43;62.58;93083.88;2054838;69;20154;-76
2023/09/10 04:32:08;;;;;;;13.30;10.50;;;;;;;20.42;62.74;93085.28;2054665;70;20149;-76
2023/09/10 04:34:34;;;;;;;11.45;10.18;;;;;;;20.51;60.95;93087.75;2051650;70;20161;-76
2023/09/10 04:37:01;;;;;;;13.00;10.40;;;;;;;20.45;62.09;93086.81;2051622;70;20609;-76
2023/09/10 04:39:28;;;;;;;13.10;10.15;;;;;;;20.20;62.43;93071.75;2054941;70;20521;-78
2023/09/10 04:41:53;;;;;;;11.20;10.00;;;;;;;20.44;60.66;93088.94;2051616;70;20621;-76
2023/09/10 04:44:20;;;;;;;11.82;10.15;;;;;;;20.42;61.46;93088.88;2055004;69;20146;-76
2023/09/10 04:46:46;;;;;;;13.45;10.10;;;;;;;20.38;61.13;93090.88;2051595;70;20138;-77
2023/09/10 04:49:11;;;;;;;12.13;10.35;;;;;;;20.28;61.15;93091.31;2051367;70;20213;-77
2023/09/10 04:51:37;;;;;;;13.05;11.07;;;;;;;20.34;61.40;93087.91;2051471;70;20164;-79
2023/09/10 04:54:04;;;;;;;11.50;10.30;;;;;;;20.55;60.29;93090.72;2051566;70;20150;-77
2023/09/10 04:56:29;;;;;;;11.43;10.02;;;;;;;20.59;59.42;93093.00;2051623;70;20145;-76
2023/09/10 04:58:55;;;;;;;13.48;10.23;;;;;;;20.44;60.45;93099.66;2051621;70;20150;-76
2023/09/10 05:01:21;;;;;;;13.75;10.48;;;;;;;20.34;61.54;93100.06;2054983;70;20261;-76
2023/09/10 05:03:46;;;;;;;11.00;9.85;;;;;;;20.24;61.60;93103.34;2054776;70;20601;-76
2023/09/10 05:06:13;;;;;;;13.57;10.50;;;;;;;20.33;61.26;93104.31;2051607;70;20604;-77
2023/09/10 05:08:39;;;;;;;11.82;10.15;;;;;;;20.34;60.89;93117.22;2054977;70;20148;-75
2023/09/10 05:11:05;;;;;;;11.95;10.10;;;;;;;20.40;61.47;93116.69;2054997;70;20138;-77
2023/09/10 05:13:31;;;;;;;11.48;9.95;;;;;;;20.41;61.52;93110.28;2051606;70;20213;-76
2023/09/10 05:15:57;;;;;;;13.35;9.90;;;;;;;20.34;62.18;93120.06;2051521;70;20601;-76
2023/09/10 05:18:25;;;;;;;13.25;9.50;;;;;;;20.36;61.71;93119.41;2051430;70;20600;-78
2023/09/10 05:20:52;;;;;;;11.50;9.85;;;;;;;20.39;61.28;93124.53;2051503;70;20495;-77
2023/09/10 05:23:23;;;;;;;11.25;9.73;;;;;;;20.35;61.23;93123.69;2051560;70;20144;-78
2023/09/10 05:25:49;;;;;;;14.77;10.18;;;;;;;20.41;61.17;93118.88;2051683;70;20209;-77
2023/09/10 05:28:15;;;;;;;11.98;10.13;;;;;;;20.39;61.25;93121.69;2051576;70;20146;-76
2023/09/10 05:30:43;;;;;;;11.68;9.75;;;;;;;20.32;61.02;93125.75;2054530;70;20601;-76
2023/09/10 05:33:10;;;;;;;11.52;9.30;;;;;;;20.18;60.02;93126.03;2051381;70;20237;-76
2023/09/10 05:35:36;;;;;;;13.32;10.20;;;;;;;20.24;59.38;93134.06;2054818;70;20140;-76
2023/09/10 05:38:03;;;;;;;10.55;9.40;;;;;;;20.29;59.96;93129.91;2051581;70;20146;-77
2023/09/10 05:40:36;;;;;;;13.27;9.85;;;;;;;20.37;59.38;93127.31;2051523;70;20158;-76
2023/09/10 05:43:04;;;;;;;11.95;9.25;;;;;;;20.39;59.69;93130.25;2051693;70;20312;-76
2023/09/10 05:45:34;;;;;;;11.90;9.60;;;;;;;20.43;60.38;93133.22;2051544;70;20495;-75
2023/09/10 05:48:00;;;;;;;11.32;9.75;;;;;;;20.46;59.28;93125.44;2051317;70;20130;-75
2023/09/10 05:50:26;;;;;;;10.68;9.32;;;;;;;20.41;59.70;93123.88;2051403;70;20617;-75
2023/09/10 05:52:55;;;;;;;10.95;9.75;;;;;;;20.45;60.42;93121.13;2051445;70;20224;-76
2023/09/10 05:55:24;;;;;;;12.90;9.27;;;;;;;20.43;59.74;93121.06;2048805;70;20156;-76
2023/09/10 05:57:53;;;;;;;11.45;9.60;;;;;;;20.36;61.09;93122.28;2051467;70;20180;-77
2023/09/10 06:00:20;;;;;;;11.82;9.65;;;;;;;20.39;61.31;93120.94;2054544;70;20145;-78
2023/09/10 06:02:49;;;;;;;12.77;10.23;;;;;;;20.37;60.75;93124.47;2051245;70;20684;-77
2023/09/10 06:05:16;;;;;;;13.63;10.05;;;;;;;20.46;60.06;93134.03;2051446;70;20150;-78
2023/09/10 06:07:42;;;;;;;11.73;10.05;;;;;;;20.46;60.28;93137.63;2054808;70;20146;-77
2023/09/10 06:10:09;;;;;;;10.30;9.20;;;;;;;20.37;59.89;93129.47;2051395;70;20200;-77
2023/09/10 06:12:37;;;;;;;13.13;9.10;;;;;;;20.43;59.35;93136.06;2051521;70;20177;-77
2023/09/10 06:15:07;;;;;;;11.68;9.07;;;;;;;20.58;57.63;93133.72;2051502;70;20164;-78
2023/09/10 06:17:34;;;;;;;11.55;9.60;;;;;;;20.53;60.24;93141.44;2054816;70;20181;-77
2023/09/10 06:20:00;;;;;;;10.43;9.30;;;;;;;20.22;60.13;93131.88;2051479;70;20249;-76
2023/09/10 06:22:25;;;;;;;11.60;9.52;;;;;;;20.45;57.94;93139.03;2051440;70;20172;-76
2023/09/10 06:24:52;;;;;;;11.52;9.15;;;;;;;20.52;58.80;93134.22;2054713;70;20229;-78
2023/09/10 06:27:18;;;;;;;11.93;9.30;;;;;;;20.54;60.76;93131.44;2054855;70;20175;-77
2023/09/10 06:29:44;;;;;;;10.88;9.63;;;;;;;20.55;60.92;93127.91;2051441;70;20157;-78
2023/09/10 06:32:10;;;;;;;11.82;9.70;;;;;;;20.56;60.28;93123.66;2051381;70;20595;-78
2023/09/10 06:34:36;;;;;;;13.13;9.40;;;;;;;20.56;61.89;93131.50;2051472;70;20147;-80
2023/09/10 06:37:02;;;;;;;10.20;9.10;;;;;;;20.54;61.84;93128.59;2048733;70;20525;-77
2023/09/10 06:39:29;;;;;;;13.00;9.27;;;;;;;20.50;61.51;93128.47;2055157;69;20273;-78
2023/09/10 06:41:54;;;;;;;12.23;10.50;;;;;;;20.25;61.06;93129.78;2055157;69;20142;-77
2023/09/10 06:44:22;;;;;;;12.57;9.95;;;;;;;20.44;60.11;93126.13;2055142;69;20141;-77
2023/09/10 06:46:47;;;;;;;12.18;10.30;;;;;;;20.51;60.69;93127.06;2058304;69;20158;-77
2023/09/10 06:49:13;;;;;;;12.38;9.68;;;;;;;20.52;59.58;93122.78;2058546;69;20165;-77
2023/09/10 06:51:38;;;;;;;10.35;9.25;;;;;;;20.84;61.28;93128.75;2058443;69;20236;-77
2023/09/10 06:54:04;;;;;;;10.68;9.27;;;;;;;20.97;60.90;93121.25;2058544;69;20138;-77
2023/09/10 06:56:30;;;;;;;11.40;9.63;;;;;;;21.01;59.22;93122.09;2058373;69;20149;-77
2023/09/10 06:58:55;;;;;;;13.50;9.75;;;;;;;21.18;57.69;93126.16;2058458;69;20747;-77
2023/09/10 07:01:21;;;;;;;10.02;8.93;;;;;;;21.44;58.60;93117.63;2058385;69;20146;-77
2023/09/10 07:03:51;;;;;;;10.05;9.00;;;;;;;21.73;57.03;93129.81;2058216;69;20602;-77
2023/09/10 07:06:17;;;;;;;11.32;9.75;;;;;;;21.53;56.47;93119.28;2058359;69;20154;-78
2023/09/10 07:08:42;;;;;;;11.07;9.45;;;;;;;21.61;57.73;93123.75;2058399;69;20138;-77
2023/09/10 07:11:08;;;;;;;10.68;9.10;;;;;;;22.05;55.89;93124.19;2058355;69;20149;-78
2023/09/10 07:13:36;;;;;;;10.23;8.75;;;;;;;22.19;54.63;93132.44;2058385;69;20165;-78
2023/09/10 07:16:02;;;;;;;11.73;8.55;;;;;;;22.51;53.10;93121.72;2058369;69;20145;-78
2023/09/10 07:18:32;;;;;;;10.52;8.45;;;;;;;22.71;53.58;93127.19;2058230;69;20168;-78
2023/09/10 07:21:02;;;;;;;10.23;8.07;;;;;;;23.10;51.99;93116.59;2058514;69;20233;-78
2023/09/10 07:23:28;;;;;;;9.40;8.40;;;;;;;23.41;51.04;93120.03;2058386;69;20145;-78
2023/09/10 07:25:55;;;;;;;10.02;8.40;;;;;;;23.73;51.14;93117.84;2058330;69;20302;-77
2023/09/10 07:28:21;;;;;;;9.48;8.48;;;;;;;22.90;51.16;93114.00;2058321;69;20177;-78
2023/09/10 07:30:46;;;;;;;10.43;8.35;;;;;;;23.68;49.49;93115.56;2058289;69;20177;-78
2023/09/10 07:33:12;;;;;;;12.25;9.10;;;;;;;23.68;50.01;93116.28;2058195;69;20148;-79
2023/09/10 07:35:38;;;;;;;10.13;8.30;;;;;;;23.68;49.92;93122.03;2058302;69;20578;-79
2023/09/10 07:38:04;;;;;;;9.50;8.20;;;;;;;24.01;49.52;93114.00;2058261;69;20164;-78
2023/09/10 07:40:29;;;;;;;9.70;8.13;;;;;;;24.46;48.91;93114.75;2055038;69;20137;-79
2023/09/10 07:42:58;;;;;;;9.43;8.43;;;;;;;24.26;49.13;93121.63;2058268;69;20589;-79
2023/09/10 07:45:25;;;;;;;12.32;9.00;;;;;;;24.29;50.07;93111.59;2055043;69;20165;-79
2023/09/10 07:47:51;;;;;;;12.25;8.77;;;;;;;24.90;49.22;93108.19;2058279;69;20249;-79
2023/09/10 07:50:17;;;;;;;11.88;8.80;;;;;;;25.34;48.89;93114.56;2051554;69;20549;-79
2023/09/10 07:52:42;;;;;;;9.52;8.60;;;;;;;25.00;48.38;93114.81;2048332;70;20656;-78
2023/09/10 07:55:08;;;;;;;9.27;8.38;;;;;;;25.34;49.20;93110.97;2052112;70;20143;-79
2023/09/10 07:57:34;;;;;;;9.52;8.40;;;;;;;25.78;47.78;93107.88;2052164;70;20193;-79
2023/09/10 07:59:59;;;;;;;9.25;8.35;;;;;;;25.68;48.22;93113.50;2048793;70;20150;-76
2023/09/10 08:02:27;;;;;;;9.90;8.18;;;;;;;26.17;48.45;93110.41;2052051;70;20162;-77
2023/09/10 08:04:53;;;;;;;10.95;8.70;;;;;;;26.33;48.53;93107.66;2048885;70;20672;-77
2023/09/10 08:07:19;;;;;;;12.55;8.25;;;;;;;26.47;47.67;93107.81;2052161;70;20142;-79
2023/09/10 08:09:45;;;;;;;13.90;9.07;;;;;;;26.56;47.18;93109.31;2052222;70;20624;-79
2023/09/10 08:12:11;;;;;;;9.25;8.32;;;;;;;27.09;47.28;93109.69;2048868;70;20142;-79
2023/09/10 08:14:38;;;;;;;10.80;8.43;;;;;;;27.29;47.21;93103.28;2051957;70;20226;-79
2023/09/10 08:17:05;;;;;;;9.73;8.20;;;;;;;27.42;46.51;93106.22;2048905;70;20684;-79
2023/09/10 08:19:33;;;;;;;8.88;7.97;;;;;;;27.55;46.93;93096.16;2052114;70;20537;-80
2023/09/10 08:21:59;;;;;;;11.95;7.93;;;;;;;27.45;46.13;93104.81;2048837;70;20211;-79
2023/09/10 08:24:24;;;;;;;9.38;8.30;;;;;;;28.01;45.84;93104.25;2052080;70;20142;-80
2023/09/10 08:26:51;;;;;;;10.75;8.25;;;;;;;28.06;44.31;93102.81;2048800;70;20591;-79
2023/09/10 08:29:18;;;;;;;9.00;8.10;;;;;;;28.08;44.71;93099.19;2048868;70;20142;-80
2023/09/10 08:31:44;;;;;;;11.27;8.25;;;;;;;28.48;42.79;93104.31;2052151;70;20172;-79
2023/09/10 08:34:09;;;;;;;9.25;8.23;;;;;;;28.59;43.31;93099.97;2045935;70;20139;-80
2023/09/10 08:36:35;;;;;;;8.63;7.82;;;;;;;28.72;42.43;93094.88;2052187;70;20153;-80
2023/09/10 08:39:02;;;;;;;8.05;7.35;;;;;;;29.12;40.65;93091.22;2048967;70;20135;-80
2023/09/10 08:41:42;;;;;;;11.10;8.07;;;;;;;29.17;40.63;93097.00;2048792;70;20151;-80
2023/09/10 08:44:10;;;;;;;9.07;7.10;;;;;;;29.61;40.19;93093.97;2052063;70;20146;-80
2023/09/10 08:46:38;;;;;;;8.38;7.60;;;;;;;30.54;38.25;93097.75;2052045;70;20181;-81
2023/09/10 08:49:05;;;;;;;8.65;7.63;;;;;;;29.90;37.92;93088.03;2052046;70;20490;-80
2023/09/10 08:51:32;;;;;;;9.82;7.45;;;;;;;30.35;39.46;93087.75;2051643;70;20130;-80
2023/09/10 08:54:00;;;;;;;8.35;7.55;;;;;;;30.49;39.05;93078.22;2048736;70;20151;-81
2023/09/10 08:56:27;;;;;;;8.63;7.63;;;;;;;31.00;38.31;93083.59;2051992;70;20177;-81
2023/09/10 08:58:57;;;;;;;8.50;7.22;;;;;;;31.30;37.80;93076.75;2051835;70;20142;-81
2023/09/10 09:01:24;;;;;;;8.85;7.30;;;;;;;30.94;38.02;93066.22;2052029;70;20151;-81
2023/09/10 09:03:50;;;;;;;9.60;8.20;;;;;;;31.22;37.51;93074.63;2051775;70;20598;-81
2023/09/10 09:06:18;;;;;;;8.90;8.07;;;;;;;31.66;37.29;93074.84;2052016;70;20146;-81
2023/09/10 09:08:49;;;;;;;8.80;8.00;;;;;;;32.22;36.35;93081.41;2048701;70;20170;-81
2023/09/10 09:11:17;;;;;;;8.55;7.63;;;;;;;32.11;37.19;93069.16;2052009;70;20142;-81
2023/09/10 09:13:45;;;;;;;10.15;7.72;;;;;;;32.29;36.04;93068.91;2051998;70;20570;-81
2023/09/10 09:16:11;;;;;;;9.73;7.40;;;;;;;31.73;37.97;93067.50;2051972;70;20173;-81
2023/09/10 09:18:40;;;;;;;9.48;7.65;;;;;;;32.56;36.29;93063.41;2051975;70;20185;-81
2023/09/10 09:21:19;;;;;;;9.00;8.07;;;;;;;32.82;35.90;93065.16;2051965;70;20153;-81
2023/09/10 09:24:03;;;;;;;8.48;7.57;;;;;;;33.23;35.05;93069.56;2052081;70;20652;-81
2023/09/10 09:26:29;;;;;;;8.68;7.57;;;;;;;33.30;35.31;93057.00;2051951;70;20161;-81
2023/09/10 09:28:56;;;;;;;8.40;7.70;;;;;;;33.17;34.84;93064.53;2051965;70;20530;-81
2023/09/10 09:31:22;;;;;;;8.75;7.78;;;;;;;32.74;35.67;93055.81;2051938;70;20146;-81
2023/09/10 09:33:48;;;;;;;8.02;7.32;;;;;;;33.27;34.50;93043.22;2048560;70;20126;-81
2023/09/10 09:36:13;;;;;;;8.25;7.53;;;;;;;33.46;35.30;93052.34;2051880;70;20603;-82
2023/09/10 09:38:47;;;;;;;8.30;7.50;;;;;;;34.70;33.10;93054.75;2051923;70;20144;-81
2023/09/10 09:41:15;;;;;;;8.45;7.55;;;;;;;33.88;34.21;93039.78;2051922;70;20154;-81
2023/09/10 09:43:41;;;;;;;9.52;7.57;;;;;;;35.04;32.84;93044.38;2051943;70;20173;-81
2023/09/10 09:46:06;;;;;;;9.18;7.97;;;;;;;35.18;33.07;93044.00;2051865;70;20132;-82
2023/09/10 09:48:34;;;;;;;8.57;7.68;;;;;;;33.59;34.53;93044.78;2051739;70;20145;-81
2023/09/10 09:51:01;;;;;;;7.82;7.03;;;;;;;34.86;33.55;93037.47;2051960;70;20150;-82
2023/09/10 09:53:28;;;;;;;9.10;8.25;;;;;;;34.56;34.07;93032.44;2051781;70;20142;-82
2023/09/10 09:56:02;;;;;;;7.70;6.88;;;;;;;36.17;31.98;93033.16;2051929;70;20545;-81
2023/09/10 09:58:29;;;;;;;11.30;7.57;;;;;;;35.64;32.64;93032.50;2051841;70;20150;-82
2023/09/10 10:00:58;;;;;;;12.00;7.18;;;;;;;36.36;31.64;93028.16;2048557;70;20652;-81
2023/09/10 10:03:23;;;;;;;7.90;7.10;;;;;;;36.37;30.70;93027.38;2051744;70;20172;-81
2023/09/10 10:05:53;;;;;;;8.35;6.75;;;;;;;37.15;29.16;93021.91;2051851;70;20530;-82
2023/09/10 10:08:24;;;;;;;7.63;6.90;;;;;;;36.71;29.84;93018.97;2051850;70;20165;-81
2023/09/10 10:10:50;;;;;;;8.02;7.32;;;;;;;37.43;30.38;93022.41;2051810;70;20141;-83
2023/09/10 10:13:17;;;;;;;7.63;6.78;;;;;;;37.53;30.79;93013.97;2051854;70;20146;-81
2023/09/10 10:15:49;;;;;;;8.10;7.40;;;;;;;37.27;29.65;93006.81;2051709;70;20149;-83
2023/09/10 10:18:15;;;;;;;;;;;;;;;35.92;30.46;93003.88;2051918;70;20233;-82
2023/09/10 10:20:46;;;;;;;8.30;6.97;;;;;;;37.32;30.41;93005.16;2051901;70;20054;-82
2023/09/10 10:23:19;;;;;;;7.82;6.78;;;;;;;38.32;28.52;93003.69;2045981;70;20158;-84
2023/09/10 10:25:46;;;;;;;7.20;6.50;;;;;;;38.42;29.66;93002.53;2051933;70;20162;-84
2023/09/10 10:28:12;;;;;;;8.63;7.40;;;;;;;38.81;28.93;92998.75;2051852;70;20190;-82
2023/09/10 10:31:10;;;;;;;8.32;7.00;;;;;;;39.84;27.61;92993.53;2051763;70;20158;-82
2023/09/10 10:33:48;;;;;;;8.90;8.00;;;;;;;39.31;28.03;92989.25;2051731;70;20221;-82
2023/09/10 10:36:23;;;;;;;8.32;7.53;;;;;;;39.35;27.72;92998.63;2048541;70;20150;-81
2023/09/10 10:38:53;;;;;;;8.48;7.63;;;;;;;39.10;28.77;92990.13;2051935;70;20154;-82
2023/09/10 10:41:24;;;;;;;8.32;7.53;;;;;;;40.19;26.84;92980.16;2051818;70;20138;-81
2023/09/10 10:43:55;;;;;;;8.70;7.90;;;;;;;41.31;27.22;92976.84;2051620;70;20143;-82
2023/09/10 10:46:25;;;;;;;9.00;7.78;;;;;;;40.57;27.35;92971.66;2048518;70;20154;-82
2023/09/10 10:48:51;;;;;;;8.15;7.45;;;;;;;40.78;26.80;92961.78;2051677;70;20173;-82
2023/09/10 10:51:17;;;;;;;7.88;7.18;;;;;;;42.33;25.66;92968.41;2051992;70;20241;-83
2023/09/10 10:53:46;;;;;;;8.55;7.75;;;;;;;43.28;24.42;92962.19;2048546;70;20530;-81
2023/09/10 10:56:13;;;;;;;8.20;7.50;;;;;;;42.09;24.96;92958.66;2051787;70;20184;-82
2023/09/10 10:58:41;;;;;;;8.88;8.07;;;;;;;41.63;25.48;92956.69;2045706;70;20138;-83
2023/09/10 11:01:10;;;;;;;8.65;7.75;;;;;;;43.47;24.11;92958.84;2051782;70;20170;-82
2023/09/10 11:03:36;;;;;;;8.02;7.10;;;;;;;43.65;23.99;92965.91;2048300;70;20169;-79
2023/09/10 11:06:07;;;;;;;8.20;7.40;;;;;;;45.56;22.85;92961.66;2051721;70;20602;-79
2023/09/10 11:08:38;;;;;;;8.10;7.00;;;;;;;45.91;22.11;92953.28;2051625;70;20178;-80
2023/09/10 11:11:09;;;;;;;8.32;6.97;;;;;;;46.49;21.28;92959.56;2051686;70;20146;-80
2023/09/10 11:13:59;;;;;;;7.88;6.75;;;;;;;47.85;20.56;92953.84;2048484;70;20213;-80
2023/09/10 11:16:29;;;;;;;6.93;6.23;;;;;;;46.24;22.59;92948.03;2051716;70;20240;-80
2023/09/10 11:18:54;;;;;;;7.25;5.43;;;;;;;48.96;20.04;92955.34;2051753;70;20377;-80
2023/09/10 11:21:41;;;;;;;5.35;4.85;;;;;;;48.71;19.20;92950.69;2051643;70;20545;-79
2023/09/10 11:24:13;;;;;;;5.50;5.00;;;;;;;47.80;19.88;92946.78;2052094;69;20146;-79
2023/09/10 11:26:45;;;;;;;5.53;4.93;;;;;;;48.57;17.94;92943.59;2057743;69;20184;-79